Time;durP1;ratioP1;P1;durP2;ratioP2;P2;SDS_P1;SDS_P2;PMS_P1;PMS_P2;Temp;Humidity;BMP_temperature;BMP_pressure;BME280_temperature;BME280_humidity;BME280_pressure;Samples;Min_cycle;Max_cycle;Signal;HPM_P1;HPM_P2
2022/11/13 00:01:14;;;;;;;;;;;5.90;99.90;;;;;;5111758;27;1203;-67
2022/11/13 00:03:59;;;;;;;;;;;5.90;99.90;;;;;;5111322;28;1215;-67
2022/11/13 00:06:42;;;;;;;;;;;5.90;99.90;;;;;;5111204;28;1231;-67
2022/11/13 00:09:26;;;;;;;;;;;5.80;99.90;;;;;;5111550;28;1187;-68
2022/11/13 00:12:10;;;;;;;;;;;5.90;99.90;;;;;;5111236;28;1187;-67
2022/11/13 00:14:54;;;;;;;;;;;5.90;99.90;;;;;;5110739;28;1270;-67
2022/11/13 00:17:38;;;;;;;;;;;5.90;99.90;;;;;;5087084;28;1312;-67
2022/11/13 00:20:23;;;;;;;;;;;6.00;99.90;;;;;;5110559;28;1243;-67
2022/11/13 00:23:07;;;;;;;;;;;6.00;99.90;;;;;;5111277;28;1973;-67
2022/11/13 00:25:51;;;;;;;;;;;6.10;99.90;;;;;;5111483;28;1259;-67
2022/11/13 00:28:35;;;;;;;;;;;6.20;99.90;;;;;;5110457;28;1294;-67
2022/11/13 00:31:20;;;;;;;;;;;6.20;99.90;;;;;;5109311;28;1215;-67
2022/11/13 00:34:04;;;;;;;;;;;6.30;99.90;;;;;;5107857;28;1180;-67
2022/11/13 00:36:48;;;;;;;;;;;6.30;99.90;;;;;;5110962;28;1270;-68
2022/11/13 00:39:32;;;;;;;;;;;6.40;99.90;;;;;;5111280;28;1235;-67
2022/11/13 00:42:16;;;;;;;;;;;6.40;99.90;;;;;;5110158;28;1902;-67
2022/11/13 00:45:00;;;;;;;;;;;6.50;99.90;;;;;;5110420;28;1402;-67
2022/11/13 00:47:44;;;;;;;;;;;6.50;99.90;;;;;;5107892;28;1395;-67
2022/11/13 00:50:28;;;;;;;;;;;6.50;99.90;;;;;;5110774;28;1265;-67
2022/11/13 00:53:12;;;;;;;;;;;6.60;99.90;;;;;;5110412;28;1350;-66
2022/11/13 00:55:59;;;;;;;;;;;6.60;99.90;;;;;;5109378;28;1291;-67
2022/11/13 00:58:43;;;;;;;;;;;6.70;99.90;;;;;;5108027;28;1192;-67
2022/11/13 01:01:27;;;;;;;;;;;6.70;99.90;;;;;;5110718;28;1964;-68
2022/11/13 01:04:11;;;;;;;;;;;6.70;99.90;;;;;;5109321;28;1216;-67
2022/11/13 01:06:56;;;;;;;;;;;6.80;99.90;;;;;;5091519;28;1251;-68
2022/11/13 01:09:40;;;;;;;;;;;6.80;99.90;;;;;;5109696;28;1215;-67
2022/11/13 01:12:24;;;;;;;;;;;6.80;99.90;;;;;;5110177;28;1162;-68
2022/11/13 01:15:08;;;;;;;;;;;6.80;99.90;;;;;;5110798;28;1274;-67
2022/11/13 01:17:54;;;;;;;;;;;6.90;99.90;;;;;;5109588;28;1288;-67
2022/11/13 01:20:38;;;;;;;;;;;6.90;99.90;;;;;;5109543;28;1208;-67
2022/11/13 01:23:22;;;;;;;;;;;6.90;99.90;;;;;;5107347;28;1959;-67
2022/11/13 01:26:07;;;;;;;;;;;6.90;99.90;;;;;;5110445;28;1152;-67
2022/11/13 01:28:51;;;;;;;;;;;6.90;99.90;;;;;;5108451;28;1311;-67
2022/11/13 01:31:36;;;;;;;;;;;6.80;99.90;;;;;;5108901;28;1216;-67
2022/11/13 01:34:19;;;;;;;;;;;6.80;99.90;;;;;;5109843;28;1239;-67
2022/11/13 01:37:04;;;;;;;;;;;6.90;99.90;;;;;;5109394;28;1080;-67
2022/11/13 01:39:48;;;;;;;;;;;6.80;99.90;;;;;;5108513;28;1219;-67
2022/11/13 01:42:33;;;;;;;;;;;6.90;99.90;;;;;;5109836;28;1965;-67
2022/11/13 01:45:36;;;;;;;;;;;6.90;99.90;;;;;;5113129;28;1290;-68
2022/11/13 01:48:20;;;;;;;;;;;6.90;99.90;;;;;;5114038;28;1251;-68
2022/11/13 01:51:08;;;;;;;;;;;6.90;99.90;;;;;;5111342;28;1247;-67
2022/11/13 01:53:52;;;;;;;;;;;6.90;99.90;;;;;;5112988;28;1279;-67
2022/11/13 01:56:37;;;;;;;;;;;6.90;99.90;;;;;;5113220;28;1324;-67
2022/11/13 01:59:24;;;;;;;;;;;6.90;99.90;;;;;;5113428;28;1278;-67
2022/11/13 02:02:08;;;;;;;;;;;6.90;99.90;;;;;;5112550;28;2000;-67
2022/11/13 02:04:52;;;;;;;;;;;6.90;99.90;;;;;;5113696;28;1250;-67
2022/11/13 02:07:37;;;;;;;;;;;6.90;99.90;;;;;;5114107;28;1262;-67
2022/11/13 02:10:21;;;;;;;;;;;6.90;99.90;;;;;;5113698;28;1207;-67
2022/11/13 02:13:05;;;;;;;;;;;6.90;99.90;;;;;;5113010;28;1266;-67
2022/11/13 02:15:49;;;;;;;;;;;6.90;99.90;;;;;;5111624;28;1386;-67
2022/11/13 02:18:34;;;;;;;;;;;6.80;99.90;;;;;;5112311;28;1223;-67
2022/11/13 02:21:36;;;;;;;;;;;6.80;99.90;;;;;;5093678;28;1914;-67
2022/11/13 02:24:27;;;;;;;;;;;6.70;99.90;;;;;;5113487;28;1232;-67
2022/11/13 02:27:20;;;;;;;;;;;6.70;99.90;;;;;;5111563;28;1310;-67
2022/11/13 02:30:12;;;;;;;;;;;6.60;99.90;;;;;;5094883;28;1263;-67
2022/11/13 02:32:57;;;;;;;;;;;6.60;99.90;;;;;;5112669;28;1223;-67
2022/11/13 02:35:41;;;;;;;;;;;6.50;99.90;;;;;;5101509;28;1148;-67
2022/11/13 02:38:25;;;;;;;;;;;6.40;99.90;;;;;;5113759;28;1085;-67
2022/11/13 02:41:09;;;;;;;;;;;6.40;99.90;;;;;;5112411;28;1199;-67
2022/11/13 02:43:53;;;;;;;;;;;6.40;99.90;;;;;;5112641;28;1208;-67
2022/11/13 02:46:37;;;;;;;;;;;6.40;99.90;;;;;;5113212;28;1203;-67
2022/11/13 02:49:21;;;;;;;;;;;6.30;99.90;;;;;;5112569;28;1267;-67
2022/11/13 02:52:05;;;;;;;;;;;6.20;99.90;;;;;;5111284;28;1306;-67
2022/11/13 02:54:49;;;;;;;;;;;6.40;99.90;;;;;;5112083;28;1300;-67
2022/11/13 02:57:33;;;;;;;;;;;6.20;99.90;;;;;;5112909;28;1032;-67
2022/11/13 03:00:18;;;;;;;;;;;6.30;99.90;;;;;;5113240;28;1258;-67
2022/11/13 03:03:02;;;;;;;;;;;6.10;99.90;;;;;;5110794;28;1901;-67
2022/11/13 03:05:48;;;;;;;;;;;6.20;99.90;;;;;;5113011;28;1215;-67
2022/11/13 03:08:32;;;;;;;;;;;6.20;99.90;;;;;;5111341;28;1306;-67
2022/11/13 03:11:16;;;;;;;;;;;6.20;99.90;;;;;;5112892;28;1266;-67
2022/11/13 03:14:00;;;;;;;;;;;6.20;99.90;;;;;;5110128;28;1244;-67
2022/11/13 03:16:44;;;;;;;;;;;6.30;99.90;;;;;;5111782;28;1320;-67
2022/11/13 03:19:28;;;;;;;;;;;6.30;99.90;;;;;;5113003;28;1267;-67
2022/11/13 03:22:12;;;;;;;;;;;6.30;99.90;;;;;;5112620;28;1910;-67
2022/11/13 03:24:56;;;;;;;;;;;6.30;99.90;;;;;;5112133;28;1255;-67
2022/11/13 03:27:40;;;;;;;;;;;6.30;99.90;;;;;;5109866;28;1350;-67
2022/11/13 03:30:25;;;;;;;;;;;6.30;99.90;;;;;;5109779;28;1270;-67
2022/11/13 03:33:09;;;;;;;;;;;6.30;99.90;;;;;;5110485;28;1200;-67
2022/11/13 03:35:53;;;;;;;;;;;6.30;99.90;;;;;;5111688;28;1239;-67
2022/11/13 03:38:37;;;;;;;;;;;6.30;99.90;;;;;;5108947;28;1191;-66
2022/11/13 03:41:22;;;;;;;;;;;6.20;99.90;;;;;;5109716;28;1338;-66
2022/11/13 03:44:06;;;;;;;;;;;6.20;99.90;;;;;;5109670;28;1215;-66
2022/11/13 03:46:50;;;;;;;;;;;6.10;99.90;;;;;;5082157;28;1113;-67
2022/11/13 03:49:34;;;;;;;;;;;6.10;99.90;;;;;;5092589;28;1200;-67
2022/11/13 03:52:18;;;;;;;;;;;6.00;99.90;;;;;;5111606;28;1224;-66
2022/11/13 03:55:02;;;;;;;;;;;5.90;99.90;;;;;;5111335;28;1190;-67
2022/11/13 03:57:47;;;;;;;;;;;5.90;99.90;;;;;;5110014;28;1204;-67
2022/11/13 04:00:31;;;;;;;;;;;5.90;99.90;;;;;;5111966;28;1250;-66
2022/11/13 04:03:15;;;;;;;;;;;6.00;99.90;;;;;;5111394;28;1968;-67
2022/11/13 04:06:00;;;;;;;;;;;6.00;99.90;;;;;;5110528;28;1254;-66
2022/11/13 04:08:44;;;;;;;;;;;5.80;99.90;;;;;;5111260;28;1219;-66
2022/11/13 04:11:28;;;;;;;;;;;5.80;99.90;;;;;;5110740;28;1239;-66
2022/11/13 04:14:12;;;;;;;;;;;5.90;99.90;;;;;;5111788;28;1223;-67
2022/11/13 04:16:56;;;;;;;;;;;5.80;99.90;;;;;;5110389;28;1243;-67
2022/11/13 04:19:40;;;;;;;;;;;5.90;99.90;;;;;;5110988;28;1287;-67
2022/11/13 04:22:24;;;;;;;;;;;6.00;99.90;;;;;;5111458;28;1901;-67
2022/11/13 04:25:08;;;;;;;;;;;6.00;99.90;;;;;;5111279;28;1329;-67
2022/11/13 04:27:52;;;;;;;;;;;6.00;99.90;;;;;;5092636;28;1397;-67
2022/11/13 04:30:37;;;;;;;;;;;6.00;99.90;;;;;;5111281;28;1100;-67
2022/11/13 04:33:21;;;;;;;;;;;6.30;99.90;;;;;;5110949;28;1206;-67
2022/11/13 04:36:05;;;;;;;;;;;6.00;99.90;;;;;;5111518;28;1180;-67
2022/11/13 04:38:50;;;;;;;;;;;6.00;99.90;;;;;;5098529;28;1081;-67
2022/11/13 04:44:36;;;;;;;;;;;6.00;99.90;;;;;;5111271;28;1189;-67
2022/11/13 04:47:21;;;;;;;;;;;6.00;99.90;;;;;;5110769;28;1116;-67
2022/11/13 04:50:05;;;;;;;;;;;6.00;99.90;;;;;;5111619;28;1088;-67
2022/11/13 04:52:49;;;;;;;;;;;5.90;99.90;;;;;;5110856;28;1105;-67
2022/11/13 04:55:34;;;;;;;;;;;5.90;99.90;;;;;;5110185;28;1507;-67
2022/11/13 04:58:18;;;;;;;;;;;5.80;99.90;;;;;;5110687;28;1285;-66
2022/11/13 05:01:03;;;;;;;;;;;5.80;99.90;;;;;;5107066;28;1188;-66
2022/11/13 05:03:47;;;;;;;;;;;5.70;99.90;;;;;;5108745;28;1976;-67
2022/11/13 05:06:31;;;;;;;;;;;5.90;99.90;;;;;;5109538;28;1325;-66
2022/11/13 05:09:15;;;;;;;;;;;5.60;99.90;;;;;;5109373;28;1247;-67
2022/11/13 05:11:59;;;;;;;;;;;5.70;99.90;;;;;;5110823;28;1411;-67
2022/11/13 05:14:43;;;;;;;;;;;5.80;99.90;;;;;;5108354;28;1223;-67
2022/11/13 05:17:28;;;;;;;;;;;5.80;99.90;;;;;;5086879;28;1284;-67
2022/11/13 05:20:12;;;;;;;;;;;5.80;99.90;;;;;;5109096;28;1135;-67
2022/11/13 05:22:56;;;;;;;;;;;5.80;99.90;;;;;;5109149;28;1973;-67
2022/11/13 05:25:40;;;;;;;;;;;5.90;99.90;;;;;;5110515;28;1294;-67
2022/11/13 05:28:24;;;;;;;;;;;5.80;99.90;;;;;;5107945;28;1298;-67
2022/11/13 05:31:10;;;;;;;;;;;5.80;99.90;;;;;;5109163;28;1228;-67
2022/11/13 05:33:54;;;;;;;;;;;5.80;99.90;;;;;;5109231;28;1120;-67
2022/11/13 05:36:38;;;;;;;;;;;5.70;99.90;;;;;;5108006;28;1251;-67
2022/11/13 05:39:22;;;;;;;;;;;5.60;99.90;;;;;;5086356;28;1925;-67
2022/11/13 05:42:07;;;;;;;;;;;5.60;99.90;;;;;;5080611;28;1902;-67
2022/11/13 05:44:51;;;;;;;;;;;5.50;99.90;;;;;;5084687;28;1511;-67
2022/11/13 05:47:35;;;;;;;;;;;5.50;99.90;;;;;;5110468;28;1219;-67
2022/11/13 05:50:19;;;;;;;;;;;6.40;99.90;;;;;;5109665;28;1191;-67
2022/11/13 05:53:03;;;;;;;;;;;5.40;99.90;;;;;;5110114;28;1258;-67
2022/11/13 05:55:47;;;;;;;;;;;5.40;99.90;;;;;;5109862;28;1208;-67
2022/11/13 05:58:31;;;;;;;;;;;5.40;99.90;;;;;;5106951;28;1247;-67
2022/11/13 06:01:20;;;;;;;;;;;5.40;99.90;;;;;;5103757;28;1227;-67
2022/11/13 06:04:06;;;;;;;;;;;5.20;99.90;;;;;;5107017;28;1317;-67
2022/11/13 06:06:51;;;;;;;;;;;5.40;99.90;;;;;;5109703;28;1143;-67
2022/11/13 06:09:35;;;;;;;;;;;4.90;99.90;;;;;;5108800;28;1073;-67
2022/11/13 06:12:19;;;;;;;;;;;4.80;99.90;;;;;;5106740;28;1286;-66
2022/11/13 06:15:03;;;;;;;;;;;4.70;99.90;;;;;;5107086;28;1184;-67
2022/11/13 06:17:48;;;;;;;;;;;4.70;99.90;;;;;;5105401;28;1257;-67
2022/11/13 06:20:33;;;;;;;;;;;4.60;99.90;;;;;;5107843;28;1266;-66
2022/11/13 06:23:18;;;;;;;;;;;4.60;99.90;;;;;;5086108;28;1910;-67
2022/11/13 06:26:03;;;;;;;;;;;4.70;99.90;;;;;;5107896;28;1270;-67
2022/11/13 06:28:47;;;;;;;;;;;4.60;99.90;;;;;;5109596;28;1326;-67
2022/11/13 06:31:33;;;;;;;;;;;4.60;99.90;;;;;;5112206;28;1243;-67
2022/11/13 06:34:17;;;;;;;;;;;4.80;99.90;;;;;;5109221;28;1246;-67
2022/11/13 06:37:01;;;;;;;;;;;4.80;99.90;;;;;;5110620;28;1101;-67
2022/11/13 06:39:45;;;;;;;;;;;4.90;99.90;;;;;;5110964;28;1242;-67
2022/11/13 06:42:29;;;;;;;;;;;4.90;99.90;;;;;;5111735;28;1913;-67
2022/11/13 06:45:13;;;;;;;;;;;5.30;99.90;;;;;;5111816;28;1088;-67
2022/11/13 06:47:57;;;;;;;;;;;5.10;99.90;;;;;;5109104;28;1235;-67
2022/11/13 06:50:41;;;;;;;;;;;5.10;99.90;;;;;;5111948;28;1167;-67
2022/11/13 06:53:25;;;;;;;;;;;5.20;99.90;;;;;;5111038;28;1218;-67
2022/11/13 06:56:09;;;;;;;;;;;5.10;99.90;;;;;;5108944;27;1212;-67
2022/11/13 06:58:55;;;;;;;;;;;5.10;99.90;;;;;;5111219;28;1212;-67
2022/11/13 07:01:39;;;;;;;;;;;5.10;99.90;;;;;;5111288;28;1914;-67
2022/11/13 07:04:23;;;;;;;;;;;5.00;99.90;;;;;;5092256;28;1183;-67
2022/11/13 07:07:07;;;;;;;;;;;5.00;99.90;;;;;;5111633;28;1084;-67
2022/11/13 07:09:51;;;;;;;;;;;5.00;99.90;;;;;;5111895;28;1085;-67
2022/11/13 07:12:35;;;;;;;;;;;5.00;99.90;;;;;;5093319;28;1120;-67
2022/11/13 07:15:19;;;;;;;;;;;5.00;99.90;;;;;;5110330;28;1129;-67
2022/11/13 07:18:04;;;;;;;;;;;5.00;99.90;;;;;;5111322;28;1589;-67
2022/11/13 07:20:48;;;;;;;;;;;5.00;99.90;;;;;;5111305;28;1104;-67
2022/11/13 07:23:33;;;;;;;;;;;5.10;99.90;;;;;;5110331;28;1963;-67
2022/11/13 07:26:17;;;;;;;;;;;5.20;99.90;;;;;;5111567;28;1108;-67
2022/11/13 07:29:02;;;;;;;;;;;5.30;99.90;;;;;;5121920;27;1298;-67
2022/11/13 07:31:46;;;;;;;;;;;5.40;99.90;;;;;;5111057;28;1100;-67
2022/11/13 07:34:29;;;;;;;;;;;5.70;99.90;;;;;;5102683;28;1148;-67
2022/11/13 07:37:13;;;;;;;;;;;5.90;99.90;;;;;;5110280;28;1120;-67
2022/11/13 07:39:57;;;;;;;;;;;6.10;99.90;;;;;;5110003;28;1148;-67
2022/11/13 07:42:41;;;;;;;;;;;6.20;99.90;;;;;;5110214;28;1917;-67
2022/11/13 07:45:26;;;;;;;;;;;6.30;99.90;;;;;;5111308;28;1092;-67
2022/11/13 07:48:10;;;;;;;;;;;6.30;99.90;;;;;;5111031;28;1120;-67
2022/11/13 07:50:58;;;;;;;;;;;6.40;99.90;;;;;;5103259;28;1105;-67
2022/11/13 07:53:42;;;;;;;;;;;6.50;99.90;;;;;;5111017;28;1377;-67
2022/11/13 07:56:26;;;;;;;;;;;6.60;99.90;;;;;;5110870;28;1112;-67
2022/11/13 07:59:10;;;;;;;;;;;6.70;99.90;;;;;;5110257;28;1134;-67
2022/11/13 08:01:54;;;;;;;;;;;6.80;99.90;;;;;;5110990;28;1985;-67
2022/11/13 08:04:38;;;;;;;;;;;6.80;99.90;;;;;;5109569;28;1037;-67
2022/11/13 08:07:22;;;;;;;;;;;6.80;99.90;;;;;;5110038;28;1149;-67
2022/11/13 08:10:06;;;;;;;;;;;6.70;99.90;;;;;;5110655;28;1120;-67
2022/11/13 08:12:57;;;;;;;;;;;6.70;99.90;;;;;;5109528;28;1138;-67
2022/11/13 08:15:41;;;;;;;;;;;6.70;99.90;;;;;;5091546;28;1259;-67
2022/11/13 08:18:27;;;;;;;;;;;6.80;99.90;;;;;;5109592;28;1111;-68
2022/11/13 08:21:11;;;;;;;;;;;6.90;99.90;;;;;;5098666;28;1153;-67
2022/11/13 08:23:55;;;;;;;;;;;7.00;99.90;;;;;;5110136;28;1993;-67
2022/11/13 08:26:39;;;;;;;;;;;7.20;99.90;;;;;;5109703;28;1179;-68
2022/11/13 08:29:23;;;;;;;;;;;7.30;99.90;;;;;;5106718;28;1203;-68
2022/11/13 08:32:07;;;;;;;;;;;7.50;99.90;;;;;;5109250;28;1104;-67
2022/11/13 08:34:52;;;;;;;;;;;7.60;99.90;;;;;;5109264;28;1118;-67
2022/11/13 08:37:36;;;;;;;;;;;7.70;99.90;;;;;;5109735;28;1105;-67
2022/11/13 08:40:20;;;;;;;;;;;7.80;99.90;;;;;;5108973;28;1144;-67
2022/11/13 08:43:04;;;;;;;;;;;7.90;99.90;;;;;;5109079;28;1969;-67
2022/11/13 08:45:48;;;;;;;;;;;8.10;99.90;;;;;;5109791;28;1251;-67
2022/11/13 08:48:33;;;;;;;;;;;8.20;99.90;;;;;;5110217;28;1120;-67
2022/11/13 08:51:17;;;;;;;;;;;8.30;99.90;;;;;;5108810;28;1108;-67
2022/11/13 08:54:01;;;;;;;;;;;8.40;99.90;;;;;;5107627;28;1428;-67
2022/11/13 08:56:47;;;;;;;;;;;8.50;99.90;;;;;;5109410;28;1182;-67
2022/11/13 08:59:31;;;;;;;;;;;8.60;99.90;;;;;;5105268;28;1108;-67
2022/11/13 09:02:16;;;;;;;;;;;8.70;99.90;;;;;;5108993;28;1975;-66
2022/11/13 09:05:00;;;;;;;;;;;8.90;99.90;;;;;;5107794;28;3636;-67
2022/11/13 09:07:45;;;;;;;;;;;9.00;99.90;;;;;;5100755;28;3690;-67
2022/11/13 09:10:29;;;;;;;;;;;9.10;99.90;;;;;;5109505;28;1174;-67
2022/11/13 09:13:13;;;;;;;;;;;9.30;99.90;;;;;;5103073;28;1029;-67
2022/11/13 09:15:58;;;;;;;;;;;9.40;99.90;;;;;;5108652;28;1305;-67
2022/11/13 09:18:42;;;;;;;;;;;9.50;99.90;;;;;;5109134;28;1098;-67
2022/11/13 09:21:26;;;;;;;;;;;9.60;99.90;;;;;;5087045;28;1085;-67
2022/11/13 09:24:10;;;;;;;;;;;9.70;99.90;;;;;;5096050;28;970;-67
2022/11/13 09:26:55;;;;;;;;;;;9.90;99.90;;;;;;5108664;28;1285;-67
2022/11/13 09:29:39;;;;;;;;;;;10.00;99.90;;;;;;5113126;28;1100;-67
2022/11/13 09:32:23;;;;;;;;;;;10.30;99.90;;;;;;5097121;28;1077;-67
2022/11/13 09:35:08;;;;;;;;;;;10.40;99.90;;;;;;5107813;28;1085;-67
2022/11/13 09:37:52;;;;;;;;;;;10.70;99.90;;;;;;5109238;28;1109;-67
2022/11/13 09:40:40;;;;;;;;;;;11.10;99.90;;;;;;5109423;28;1144;-68
2022/11/13 09:43:33;;;;;;;;;;;11.70;99.90;;;;;;5107572;28;1984;-67
2022/11/13 09:46:22;;;;;;;;;;;12.70;99.90;;;;;;5109605;28;1112;-67
2022/11/13 09:49:13;;;;;;;;;;;13.70;99.90;;;;;;5108864;28;1092;-67
2022/11/13 09:52:01;;;;;;;;;;;14.70;99.90;;;;;;5108620;28;959;-67
2022/11/13 09:54:45;;;;;;;;;;;15.50;99.90;;;;;;5108168;28;1250;-67
2022/11/13 09:57:48;;;;;;;;;;;16.20;99.90;;;;;;5108072;28;1159;-67
2022/11/13 10:00:33;;;;;;;;;;;16.90;99.90;;;;;;5109257;28;1127;-67
2022/11/13 10:03:30;;;;;;;;;;;17.50;99.90;;;;;;5109612;28;1970;-67
2022/11/13 10:06:21;;;;;;;;;;;18.10;99.90;;;;;;5099910;28;1065;-67
2022/11/13 10:09:18;;;;;;;;;;;18.20;99.90;;;;;;5112709;28;1143;-67
2022/11/13 10:12:06;;;;;;;;;;;18.20;99.50;;;;;;5111633;27;1122;-67
2022/11/13 10:14:52;;;;;;;;;;;19.00;98.20;;;;;;5090963;28;1194;-67
2022/11/13 10:17:40;;;;;;;;;;;19.10;98.30;;;;;;5102610;28;1341;-67
2022/11/13 10:20:28;;;;;;;;;;;19.50;97.30;;;;;;5112284;28;1092;-68
2022/11/13 10:23:15;;;;;;;;;;;19.50;96.30;;;;;;5112278;28;1970;-68
2022/11/13 10:26:06;;;;;;;;;;;19.80;96.20;;;;;;5111839;28;1088;-68
2022/11/13 10:28:55;;;;;;;;;;;20.30;95.50;;;;;;5109886;28;1667;-67
2022/11/13 10:31:41;;;;;;;;;;;20.60;94.40;;;;;;5111311;28;1223;-68
2022/11/13 10:34:25;;;;;;;;;;;20.60;93.70;;;;;;5109378;28;1184;-68
2022/11/13 10:37:27;;;;;;;;;;;20.60;93.70;;;;;;5112024;28;1120;-67
2022/11/13 10:40:21;;;;;;;;;;;20.80;93.30;;;;;;5111661;28;1036;-68
2022/11/13 10:43:14;;;;;;;;;;;21.30;92.30;;;;;;5105847;28;1945;-68
2022/11/13 10:46:00;;;;;;;;;;;21.50;91.00;;;;;;5111573;28;1140;-68
2022/11/13 10:48:44;;;;;;;;;;;21.30;90.90;;;;;;5099805;28;1093;-68
2022/11/13 10:51:30;;;;;;;;;;;21.30;90.80;;;;;;5112390;28;1113;-68
2022/11/13 10:54:23;;;;;;;;;;;20.80;90.30;;;;;;5110753;28;1260;-68
2022/11/13 10:57:27;;;;;;;;;;;20.80;91.20;;;;;;5102145;28;1108;-68
2022/11/13 11:00:18;;;;;;;;;;;21.40;90.60;;;;;;5111212;28;1164;-68
2022/11/13 11:03:06;;;;;;;;;;;21.50;88.50;;;;;;5111337;28;1913;-68
2022/11/13 11:05:52;;;;;;;;;;;21.90;88.60;;;;;;5110503;28;1619;-68
2022/11/13 11:08:36;;;;;;;;;;;22.80;86.40;;;;;;5111123;28;1072;-68
2022/11/13 11:14:26;;;;;;;;;;;23.90;82.40;;;;;;5109151;28;3355;-68
2022/11/13 11:17:11;;;;;;;;;;;24.60;79.30;;;;;;5093069;28;1445;-68
2022/11/13 11:19:58;;;;;;;;;;;25.40;76.60;;;;;;5111764;28;1163;-68
2022/11/13 11:22:44;;;;;;;;;;;26.30;71.00;;;;;;5110468;28;1985;-69
2022/11/13 11:25:33;;;;;;;;;;;26.40;71.30;;;;;;5111269;28;1131;-69
2022/11/13 11:28:28;;;;;;;;;;;26.50;68.50;;;;;;5110742;28;1361;-69
2022/11/13 11:31:27;;;;;;;;;;;26.00;68.20;;;;;;5110815;28;1059;-68
2022/11/13 11:34:17;;;;;;;;;;;25.70;68.80;;;;;;5109930;28;1345;-69
2022/11/13 11:37:12;;;;;;;;;;;25.80;68.10;;;;;;5109924;28;1350;-69
2022/11/13 11:40:01;;;;;;;;;;;26.00;67.90;;;;;;5110415;27;1191;-69
2022/11/13 11:42:51;;;;;;;;;;;26.00;66.30;;;;;;5110186;28;1918;-69
2022/11/13 11:45:36;;;;;;;;;;;26.20;66.30;;;;;;5110242;28;1184;-69
2022/11/13 11:48:22;;;;;;;;;;;26.70;64.20;;;;;;5107940;28;1349;-69
2022/11/13 11:51:09;;;;;;;;;;;26.90;64.40;;;;;;5110999;28;1178;-69
2022/11/13 11:53:57;;;;;;;;;;;27.10;64.00;;;;;;5110290;28;1332;-69
2022/11/13 11:56:44;;;;;;;;;;;26.80;63.30;;;;;;5107226;28;1211;-69
2022/11/13 11:59:37;;;;;;;;;;;26.50;64.10;;;;;;5111060;28;1119;-69
2022/11/13 12:02:38;;;;;;;;;;;26.30;63.80;;;;;;5110547;28;1927;-69
2022/11/13 12:05:26;;;;;;;;;;;26.20;63.30;;;;;;5110353;28;1206;-69
2022/11/13 12:08:10;;;;;;;;;;;26.20;63.20;;;;;;5098265;28;1168;-69
2022/11/13 12:11:02;;;;;;;;;;;26.30;63.10;;;;;;5109401;28;1166;-69
2022/11/13 12:13:53;;;;;;;;;;;26.40;62.70;;;;;;5110893;28;1088;-69
2022/11/13 12:16:48;;;;;;;;;;;26.50;62.50;;;;;;5096986;28;1555;-69
2022/11/13 12:19:38;;;;;;;;;;;26.50;62.70;;;;;;5098299;28;1142;-69
2022/11/13 12:22:26;;;;;;;;;;;26.50;62.50;;;;;;5110315;28;1921;-70
2022/11/13 12:25:16;;;;;;;;;;;26.30;62.10;;;;;;5102953;28;1049;-69
2022/11/13 12:28:10;;;;;;;;;;;26.10;63.00;;;;;;5110306;28;1334;-70
2022/11/13 12:31:02;;;;;;;;;;;25.90;63.10;;;;;;5109699;28;1178;-69
2022/11/13 12:33:49;;;;;;;;;;;25.90;63.00;;;;;;5109945;28;1108;-70
2022/11/13 12:36:33;;;;;;;;;;;26.30;61.80;;;;;;5109809;28;1130;-70
2022/11/13 12:39:37;;;;;;;;;;;26.90;61.30;;;;;;5109253;28;1096;-70
2022/11/13 12:42:33;;;;;;;;;;;27.40;59.70;;;;;;5109824;28;1987;-70
2022/11/13 12:45:26;;;;;;;;;;;27.60;59.40;;;;;;5109647;28;990;-70
2022/11/13 12:48:13;;;;;;;;;;;27.70;59.00;;;;;;5109751;28;984;-70
2022/11/13 12:50:59;;;;;;;;;;;27.80;59.10;;;;;;5109824;28;1142;-70
2022/11/13 12:53:47;;;;;;;;;;;27.90;58.80;;;;;;5108513;28;1388;-70
2022/11/13 12:56:32;;;;;;;;;;;27.90;58.20;;;;;;5110018;28;1121;-71
2022/11/13 12:59:17;;;;;;;;;;;28.00;58.30;;;;;;5108831;28;1163;-70
2022/11/13 13:02:05;;;;;;;;;;;28.00;58.10;;;;;;5087668;28;2056;-71
2022/11/13 13:04:51;;;;;;;;;;;28.10;57.80;;;;;;5099647;28;1295;-71
2022/11/13 13:07:41;;;;;;;;;;;28.10;57.50;;;;;;5108504;28;1104;-71
2022/11/13 13:10:29;;;;;;;;;;;28.10;57.20;;;;;;5102979;28;1156;-71
2022/11/13 13:13:19;;;;;;;;;;;28.20;56.50;;;;;;5107016;28;3329;-70
2022/11/13 13:16:04;;;;;;;;;;;28.20;56.50;;;;;;5108277;28;1404;-71
2022/11/13 13:18:48;;;;;;;;;;;28.30;56.10;;;;;;5109440;28;1249;-71
2022/11/13 13:21:40;;;;;;;;;;;28.20;55.60;;;;;;5087317;28;1132;-71
2022/11/13 13:24:26;;;;;;;;;;;28.30;55.20;;;;;;5090739;28;1119;-71
2022/11/13 13:27:20;;;;;;;;;;;28.40;55.30;;;;;;5106957;28;1413;-71
2022/11/13 13:30:23;;;;;;;;;;;28.40;55.50;;;;;;5109153;28;1124;-71
2022/11/13 13:33:19;;;;;;;;;;;28.30;55.10;;;;;;5103067;28;1184;-71
2022/11/13 13:36:12;;;;;;;;;;;28.40;55.30;;;;;;5099859;28;1105;-71
2022/11/13 13:39:15;;;;;;;;;;;28.40;55.50;;;;;;5112225;28;1148;-71
2022/11/13 13:42:09;;;;;;;;;;;28.50;55.30;;;;;;5091057;28;1922;-71
2022/11/13 13:45:06;;;;;;;;;;;28.40;54.50;;;;;;5110605;28;1254;-71
2022/11/13 13:47:52;;;;;;;;;;;28.00;55.20;;;;;;5113483;28;1108;-71
2022/11/13 13:50:46;;;;;;;;;;;27.40;56.70;;;;;;5112776;28;1023;-71
2022/11/13 13:53:33;;;;;;;;;;;26.90;57.40;;;;;;5112371;28;1617;-71
2022/11/13 13:56:18;;;;;;;;;;;26.60;58.10;;;;;;5112483;28;1092;-71
2022/11/13 13:59:02;;;;;;;;;;;26.60;57.90;;;;;;5113318;28;1016;-71
2022/11/13 14:01:54;;;;;;;;;;;26.70;58.20;;;;;;5112682;28;1157;-71
2022/11/13 14:04:46;;;;;;;;;;;27.00;58.30;;;;;;5112323;28;1155;-71
2022/11/13 14:07:32;;;;;;;;;;;27.20;58.10;;;;;;5113179;28;1105;-71
2022/11/13 14:10:17;;;;;;;;;;;27.30;57.60;;;;;;5111899;28;1155;-71
2022/11/13 14:13:02;;;;;;;;;;;27.40;57.20;;;;;;5082535;28;1093;-71
2022/11/13 14:15:46;;;;;;;;;;;27.60;56.80;;;;;;5112630;28;1155;-71
2022/11/13 14:18:31;;;;;;;;;;;27.70;56.80;;;;;;5111404;28;1171;-71
2022/11/13 14:21:19;;;;;;;;;;;27.70;56.40;;;;;;5112737;28;1164;-71
2022/11/13 14:24:04;;;;;;;;;;;27.70;56.20;;;;;;5111468;28;1969;-71
2022/11/13 14:26:50;;;;;;;;;;;27.80;56.40;;;;;;5111743;28;1108;-70
2022/11/13 14:29:45;;;;;;;;;;;27.80;56.20;;;;;;5103069;28;1113;-70
2022/11/13 14:32:31;;;;;;;;;;;27.70;56.20;;;;;;5112157;28;1092;-70
2022/11/13 14:35:19;;;;;;;;;;;27.60;56.00;;;;;;5112625;28;1101;-71
2022/11/13 14:38:03;;;;;;;;;;;27.50;55.80;;;;;;5104811;28;1191;-70
2022/11/13 14:40:48;;;;;;;;;;;27.40;55.90;;;;;;5101969;28;1179;-70
2022/11/13 14:43:32;;;;;;;;;;;27.20;55.70;;;;;;5112397;28;1969;-70
2022/11/13 14:46:28;;;;;;;;;;;27.00;55.40;;;;;;5110931;28;1197;-70
2022/11/13 14:49:13;;;;;;;;;;;26.90;55.60;;;;;;5103701;28;1155;-70
2022/11/13 14:52:00;;;;;;;;;;;26.60;55.70;;;;;;5111398;28;1152;-71
2022/11/13 14:54:44;;;;;;;;;;;26.20;56.20;;;;;;5111390;28;1306;-70
2022/11/13 14:57:28;;;;;;;;;;;25.80;57.00;;;;;;5112113;28;1133;-70
2022/11/13 15:00:16;;;;;;;;;;;25.50;57.60;;;;;;5111154;28;1135;-70
2022/11/13 15:03:02;;;;;;;;;;;25.10;58.30;;;;;;5111429;28;1910;-70
2022/11/13 15:05:46;;;;;;;;;;;24.70;59.70;;;;;;5111273;28;1250;-70
2022/11/13 15:08:33;;;;;;;;;;;24.20;60.00;;;;;;5111379;28;1179;-70
2022/11/13 15:11:18;;;;;;;;;;;23.60;60.60;;;;;;5098121;28;1176;-70
2022/11/13 15:14:02;;;;;;;;;;;22.60;61.90;;;;;;5103352;28;3405;-70
2022/11/13 15:16:47;;;;;;;;;;;21.40;64.30;;;;;;5103009;28;1222;-70
2022/11/13 15:19:33;;;;;;;;;;;20.20;67.10;;;;;;5093935;28;1176;-70
2022/11/13 15:22:17;;;;;;;;;;;19.00;69.70;;;;;;5109373;28;1978;-70
2022/11/13 15:25:01;;;;;;;;;;;18.30;72.30;;;;;;5111726;28;1117;-70
2022/11/13 15:27:46;;;;;;;;;;;17.90;73.10;;;;;;5110768;28;1334;-70
2022/11/13 15:30:30;;;;;;;;;;;16.80;74.20;;;;;;5112093;28;1112;-69
2022/11/13 15:33:15;;;;;;;;;;;16.80;76.60;;;;;;5113060;28;1159;-70
2022/11/13 15:35:59;;;;;;;;;;;16.30;78.80;;;;;;5112458;28;1077;-69
2022/11/13 15:38:43;;;;;;;;;;;15.80;81.60;;;;;;5111568;28;1132;-69
2022/11/13 15:41:27;;;;;;;;;;;15.10;86.20;;;;;;5110816;28;1261;-69
2022/11/13 15:44:12;;;;;;;;;;;14.50;91.70;;;;;;5110843;28;1909;-69
2022/11/13 15:46:57;;;;;;;;;;;14.10;95.50;;;;;;5110560;28;1123;-69
2022/11/13 15:49:41;;;;;;;;;;;13.70;98.80;;;;;;5110399;28;1111;-69
2022/11/13 15:52:26;;;;;;;;;;;13.40;99.90;;;;;;5110813;28;1111;-69
2022/11/13 15:55:18;;;;;;;;;;;13.10;99.90;;;;;;5109657;28;1133;-69
2022/11/13 15:58:02;;;;;;;;;;;12.90;99.90;;;;;;5108526;28;1105;-69
2022/11/13 16:00:46;;;;;;;;;;;12.80;99.90;;;;;;5109086;28;1170;-69
2022/11/13 16:03:33;;;;;;;;;;;12.50;99.90;;;;;;5109719;28;2002;-69
2022/11/13 16:06:20;;;;;;;;;;;12.30;99.90;;;;;;5110088;28;1067;-69
2022/11/13 16:09:04;;;;;;;;;;;12.10;99.90;;;;;;5090733;28;1311;-69
2022/11/13 16:11:48;;;;;;;;;;;12.00;99.90;;;;;;5110782;28;1084;-69
2022/11/13 16:14:32;;;;;;;;;;;11.80;99.90;;;;;;5109627;28;1136;-69
2022/11/13 16:17:19;;;;;;;;;;;11.60;99.90;;;;;;5103758;28;3653;-69
2022/11/13 16:20:06;;;;;;;;;;;11.50;99.90;;;;;;5104375;28;3827;-69
2022/11/13 16:22:50;;;;;;;;;;;11.30;99.90;;;;;;5097087;28;3544;-68
2022/11/13 16:25:35;;;;;;;;;;;11.20;99.90;;;;;;5098887;28;3601;-69
2022/11/13 16:28:19;;;;;;;;;;;11.10;99.90;;;;;;5108627;28;3731;-69
2022/11/13 16:31:03;;;;;;;;;;;10.90;99.90;;;;;;5106313;28;1143;-69
2022/11/13 16:33:47;;;;;;;;;;;10.80;99.90;;;;;;5109977;28;1032;-69
2022/11/13 16:36:31;;;;;;;;;;;10.70;99.90;;;;;;5091556;28;1120;-68